ADDS METAR Data INFO
IDs: Format: Raw Decoded Include TAF

Data at: 2043 UTC 19 Jul 2018

KLCK 192035Z AUTO 13006KT 10SM CLR 28/12 A3001 RMK AO2 T02830122
KLCK 192015Z AUTO 12007KT 10SM CLR 29/13 A3001 RMK AO2 T02850125
KLCK 191955Z AUTO 15009KT 10SM CLR 28/13 A3001 RMK AO2 T02840128
KLCK 191935Z AUTO 13005KT 10SM CLR 28/13 A3001 RMK AO2 T02810125
KLCK 191915Z AUTO 09007KT 10SM CLR 28/12 A3002 RMK AO2 T02780124
KLCK 191855Z AUTO 11005KT 10SM CLR 28/12 A3002 RMK AO2 T02800123
KLCK 191835Z AUTO 09008KT 070V130 10SM CLR 28/12 A3003 RMK AO2 T02770122
KLCK 191815Z AUTO 09007KT 050V120 10SM CLR 27/12 A3003 RMK AO2 T02740123
KLCK 191755Z AUTO 06008KT 10SM CLR 27/12 A3003 RMK AO2 T02680118
KLCK 191735Z AUTO 06005KT 10SM CLR 27/12 A3004 RMK AO2 T02690120
KLCK 191715Z AUTO 10006KT 10SM CLR 26/11 A3005 RMK AO2 T02610114
KLCK 191655Z AUTO 09007KT 10SM CLR 27/12 A3006 RMK AO2 T02650116
KLCK 191635Z AUTO 06006KT 10SM CLR 26/12 A3006 RMK AO2 T02620115
KLCK 191615Z AUTO 10006KT 060V130 10SM CLR 26/11 A3007 RMK AO2 T02600113
KLCK 191555Z AUTO 12010KT 10SM CLR 26/11 A3008 RMK AO2 T02590111
KLCK 191535Z AUTO 12008KT 10SM CLR 26/11 A3008 RMK AO2 T02580112
KLCK 191515Z AUTO 11008KT 10SM CLR 26/12 A3008 RMK AO2 T02580116
KLCK 191455Z AUTO 14007KT 10SM CLR 25/13 A3008 RMK AO2 T02470130
KLCK 191435Z AUTO 09004KT 10SM CLR 24/14 A3008 RMK AO2 T02400144
KLCK 191415Z AUTO 13003KT 10SM CLR 23/15 A3009 RMK AO2 T02320145
KLCK 191355Z AUTO 12003KT 10SM CLR 22/15 A3009 RMK AO2 T02230148
KLCK 191335Z AUTO 12003KT 10SM CLR 21/15 A3009 RMK AO2 T02140150
KLCK 191315Z AUTO 00000KT 10SM CLR 21/15 A3008 RMK AO2 T02050148
KLCK 191255Z AUTO 00000KT 10SM CLR 20/15 A3008 RMK AO2 T01980145
KLCK 191235Z AUTO 00000KT 10SM CLR 18/14 A3008 RMK AO2 T01830142
KLCK 191215Z AUTO 00000KT 10SM CLR 17/14 A3008 RMK AO2 T01740140
KLCK 191155Z AUTO 04003KT 10SM CLR 17/14 A3008 RMK AO2 T01680137
KLCK 191135Z AUTO 00000KT 10SM CLR 16/14 A3007 RMK AO2 T01600140
KLCK 191115Z AUTO 00000KT 10SM CLR 15/13 A3007 RMK AO2 T01510134
KLCK 191055Z AUTO 05004KT 10SM CLR 15/13 A3007 RMK AO2 T01460129
KLCK 191035Z AUTO 05005KT 10SM CLR 14/13 A3007 RMK AO2 T01420126
KLCK 191015Z AUTO 05005KT 10SM CLR 15/12 A3007 RMK AO2 T01450124
KLCK 190955Z AUTO 04005KT 10SM CLR 15/12 A3007 RMK AO2 T01520123
KLCK 190935Z AUTO 04004KT 10SM CLR 15/12 A3007 RMK AO2 T01510122
KLCK 190915Z AUTO 07003KT 10SM CLR 15/12 A3007 RMK AO2 T01480121
KLCK 190855Z AUTO 07003KT 10SM CLR 15/12 A3006 RMK AO2 T01540122
KLCK 190835Z AUTO 00000KT 10SM CLR 16/12 A3007 RMK AO2 T01570124
KLCK 190815Z AUTO 00000KT 10SM CLR 16/13 A3006 RMK AO2 T01590125
KLCK 190755Z AUTO 00000KT 10SM CLR 15/12 A3006 RMK AO2 T01510123
KLCK 190735Z AUTO 00000KT 10SM CLR 15/12 A3006 RMK AO2 T01470122
KLCK 190715Z AUTO 07003KT 10SM CLR 15/12 A3006 RMK AO2 T01530122
KLCK 190655Z AUTO 04005KT 10SM CLR 16/12 A3007 RMK AO2 T01570122
KLCK 190635Z AUTO 06005KT 10SM CLR 16/12 A3007 RMK AO2 T01620122
KLCK 190615Z AUTO 07006KT 10SM CLR 16/13 A3006 RMK AO2 T01600125
KLCK 190555Z AUTO 05006KT 10SM CLR 16/13 A3006 RMK AO2 T01610128
KLCK 190535Z AUTO 05005KT 10SM CLR 17/13 A3007 RMK AO2 T01660131
KLCK 190515Z AUTO 07006KT 10SM CLR 17/13 A3007 RMK AO2 T01730134
KLCK 190455Z AUTO 06007KT 10SM CLR 17/14 A3007 RMK AO2 T01710138
KLCK 190435Z AUTO 04005KT 10SM CLR 18/14 A3006 RMK AO2 T01800137
KLCK 190415Z AUTO 00000KT 10SM CLR 18/14 A3006 RMK AO2 T01840136
KLCK 190355Z AUTO 00000KT 10SM CLR 18/14 A3006 RMK AO2 T01820137
KLCK 190335Z AUTO 09003KT 10SM CLR 19/14 A3005 RMK AO2 T01850138
KLCK 190315Z AUTO 00000KT 10SM CLR 19/14 A3005 RMK AO2 T01880138
KLCK 190255Z AUTO 00000KT 10SM SCT060 19/14 A3005 RMK AO2 T01940140
KLCK 190235Z AUTO 00000KT 10SM SCT060 19/14 A3005 RMK AO2 T01930141
KLCK 190215Z AUTO 08003KT 10SM CLR 20/14 A3004 RMK AO2 T01970140
KLCK 190155Z AUTO 08004KT 10SM CLR 21/14 A3004 RMK AO2 T02050139
KLCK 190135Z AUTO 09003KT 10SM CLR 22/14 A3003 RMK AO2 T02190137
KLCK 190115Z AUTO 07004KT 10SM SCT065 22/14 A3003 RMK AO2 T02240139
KLCK 190055Z AUTO 08005KT 10SM SCT065 23/14 A3002 RMK AO2 T02280140
KLCK 190035Z AUTO 10003KT 10SM SCT065 24/14 A3002 RMK AO2 T02360138
KLCK 190015Z AUTO 08004KT 10SM BKN065 25/14 A3002 RMK AO2 T02450136
KLCK 182355Z AUTO 11003KT 10SM SCT065 26/13 A3002 RMK AO2 T02550133
KLCK 182335Z AUTO 10003KT 10SM CLR 26/13 A3002 RMK AO2 T02580131
KLCK 182315Z AUTO 11005KT 10SM SCT070 26/13 A3002 RMK AO2 T02580129
KLCK 182255Z AUTO 09006KT 10SM BKN070 27/13 A3002 RMK AO2 T02660130
KLCK 182235Z AUTO 00000KT 10SM SCT070 26/12 A3002 RMK AO2 T02630124
KLCK 182215Z AUTO 00000KT 10SM CLR 27/13 A3003 RMK AO2 T02660126
KLCK 182155Z AUTO 11004KT 10SM SCT060 BKN070 26/13 A3003 RMK AO2 T02590127
KLCK 182135Z AUTO 08006KT 10SM BKN060 BKN070 27/13 A3003 RMK AO2 T02680128
KLCK 182115Z AUTO 00000KT 10SM SCT070 27/12 A3003 RMK AO2 T02660123
KLCK 182055Z AUTO 06005KT 10SM BKN060 26/13 A3004 RMK AO2 T02630128
KLCK 182035Z AUTO 14003KT 10SM BKN070 27/12 A3004 RMK AO2 T02700121
KLCK 182015Z AUTO 00000KT 10SM BKN070 26/12 A3005 RMK AO2 T02600122
KLCK 181955Z AUTO 10006KT 10SM BKN070 27/12 A3005 RMK AO2 T02660121
KLCK 181935Z AUTO 06004KT 10SM SCT060 26/12 A3005 RMK AO2 T02630119
KLCK 181915Z AUTO 06003KT 10SM BKN060 26/12 A3006 RMK AO2 T02620119
KLCK 181855Z AUTO 00000KT 10SM BKN060 26/12 A3006 RMK AO2 T02560122
KLCK 181835Z AUTO 09006KT 10SM BKN060 26/12 A3006 RMK AO2 T02580123
KLCK 181815Z AUTO 09008KT 10SM SCT060 26/13 A3006 RMK AO2 T02640129
KLCK 181755Z AUTO 10007KT 10SM CLR 27/13 A3006 RMK AO2 T02650131
KLCK 181735Z AUTO 07008KT 10SM SCT055 SCT065 26/13 A3007 RMK AO2 T02640134
KLCK 181715Z AUTO 08009KT 10SM SCT050 26/13 A3007 RMK AO2 T02580131
KLCK 181655Z AUTO 07010KT 10SM SCT050 26/13 A3008 RMK AO2 T02630130
KLCK 181635Z AUTO 09004KT 10SM BKN050 26/13 A3008 RMK AO2 T02570128
KLCK 181615Z AUTO 10006KT 10SM SCT050 26/13 A3008 RMK AO2 T02570132
KLCK 181555Z AUTO 12006KT 10SM SCT048 25/13 A3008 RMK AO2 T02530133
KLCK 181535Z AUTO 11007KT 10SM SCT047 25/14 A3008 RMK AO2 T02500135
KLCK 181515Z AUTO 08007KT 10SM CLR 25/14 A3008 RMK AO2 T02460137
KLCK 181455Z AUTO 07008KT 10SM CLR 24/13 A3008 RMK AO2 T02410133
KLCK 181435Z AUTO 06005KT 10SM CLR 24/13 A3008 RMK AO2 T02380132
KLCK 181415Z AUTO 08007KT 10SM CLR 23/14 A3008 RMK AO2 T02330136
KLCK 181355Z AUTO 08007KT 10SM CLR 23/14 A3009 RMK AO2 T02280140
KLCK 181335Z AUTO 08007KT 10SM CLR 22/14 A3009 RMK AO2 T02220140
KLCK 181315Z AUTO 08007KT 10SM CLR 21/15 A3009 RMK AO2 T02130146
KLCK 181255Z AUTO 06005KT 10SM CLR 20/15 A3009 RMK AO2 T02040149
KLCK 181235Z AUTO 07005KT 10SM CLR 20/15 A3009 RMK AO2 T01960152
KLCK 181215Z AUTO 05004KT 10SM CLR 19/15 A3008 RMK AO2 T01900153
KLCK 181155Z AUTO 04004KT 10SM CLR 19/15 A3008 RMK AO2 T01850153
KLCK 181135Z AUTO 03004KT 10SM CLR 18/15 A3007 RMK AO2 T01800152
KLCK 181115Z AUTO 00000KT 10SM CLR 18/15 A3007 RMK AO2 T01780150
KLCK 181055Z AUTO 00000KT 10SM CLR 17/15 A3006 RMK AO2 T01650151
KLCK 181035Z AUTO 00000KT 10SM SCT065 16/15 A3006 RMK AO2 T01560147
KLCK 181015Z AUTO 00000KT 10SM SCT065 16/15 A3005 RMK AO2 T01620148
KLCK 180955Z AUTO 00000KT 10SM SCT070 16/15 A3005 RMK AO2 T01610147
KLCK 180935Z AUTO 00000KT 10SM SCT070 16/15 A3004 RMK AO2 T01590146
KLCK 180915Z AUTO 00000KT 10SM SCT065 16/15 A3004 RMK AO2 T01640145
KLCK 180855Z AUTO 00000KT 10SM SCT070 17/15 A3004 RMK AO2 T01650147